Tiempo atmosférico en la estación meteorológica de Pola de Somiedo, Asturias (668 m.)



Fecha
DESCASC
Temp. máxima en grados centígrados (hora)
DESCASC
Temp. mínima en grados centígrados (hora)
DESCASC
Temp. media en grados centígrados
DESCASC
Racha de viento máxima en m/sg (hora)
DESCASC
Velocidad máxima media en intervalos de 10 minutos(hora)
DESCASC
Precipitaciones diarias en mm
DESCASC
Precipitaciones de 00:00 a 06:00 en mm
DESCASC
Precipitaciones de 06:00 a 12:00 en mm
DESCASC
Precipitaciones de 12:00 a 18:00 en mm
DESCASC
Precipitaciones de 18:00 a 24:00 en mm
DESCASC
23-06-2019 23 (14:00) 13.6 (07:20) 18.3 8.89 (14:10) 3.61 (13:50) 6.6 0 5.8 0.8 0
22-06-2019 27.5 (16:40) 9.5 (04:20) 18.5 9.72 (13:10) 3.61 (10:20) 0 0 0 0 0
21-06-2019 18.7 (14:30) 10.9 (05:20) 14.8 5.83 (12:10) 2.5 (14:10) 0.2 0.2 0 0 0
20-06-2019 16 (12:50) 11.4 (00:00) 13.7 4.17 (11:00) 1.39 (02:00) 3.6 0.2 0 0 3.4
19-06-2019 -- (--) -- (--) -- -- (--) -- (--) -- 0.2 0 -- 0
18-06-2019 23.9 (12:40) 7.5 (00:00) 15.7 8.33 (17:40) 3.06 (16:00) 2 0 0 0 2
17-06-2019 25.4 (13:50) 7.5 (00:00) 16.4 7.5 (16:00) 2.78 (15:40) 0 0 0 0 0
16-06-2019 23.2 (16:30) 8.6 (00:00) 15.9 6.39 (14:20) 2.22 (13:30) 0 0 0 0 0
15-06-2019 20.4 (16:30) 4.8 (00:00) 12.6 6.39 (17:40) 2.5 (16:40) 0 0 0 0 0
14-06-2019 17.3 (12:30) 5.8 (00:00) 11.5 5.56 (15:30) 2.5 (13:00) 0.2 0 0 0 0.2
13-06-2019 13.7 (13:40) 8.3 (00:00) 11 5.28 (11:20) 1.67 (11:10) 0 0 0 0 0
12-06-2019 16.3 (15:30) 3.8 (00:00) 10 5.56 (18:00) 2.5 (14:40) 0.4 0.2 0 0 0.2
11-06-2019 12.3 (16:50) 6.6 (00:00) 9.5 6.11 (13:20) 2.22 (13:10) 8.4 3.6 3.4 1.2 0.2
10-06-2019 16.1 (15:50) 5.3 (00:00) 10.7 5.83 (17:00) 1.94 (14:00) 1.6 0 0 0 1.6
09-06-2019 16.2 (14:30) 9.2 (00:00) 12.7 8.89 (15:10) 2.78 (15:10) 0 0 0 0 0
08-06-2019 17.2 (13:50) 2.1 (00:00) 9.7 8.33 (14:10) 2.78 (14:30) 0.2 0 0 0 0.2
07-06-2019 13.3 (16:50) 7 (00:00) 10.2 13.89 (09:10) 3.89 (04:00) 1.4 0.4 0.8 0 0.2
06-06-2019 17 (15:30) 3.6 (00:00) 10.3 14.72 (16:00) 5.56 (15:20) 15.4 0 0 7.2 8.2
05-06-2019 13.4 (15:50) 6.2 (00:00) 9.8 8.06 (16:20) 3.06 (14:50) 4.2 0.2 1.6 1.6 0.8
04-06-2019 18.2 (18:10) 9.7 (00:00) 14 8.06 (20:20) 2.5 (20:20) 8 0 0 4.8 3.2
03-06-2019 23.9 (13:20) 12.8 (00:00) 18.3 7.5 (16:20) 2.78 (15:40) 0 0 0 0 0
02-06-2019 26.8 (13:30) 9.5 (00:00) 18.1 6.11 (19:30) 2.5 (19:30) -- 0 -- 0 0
01-06-2019 31.8 (15:20) 10.6 (00:00) 21.2 5.83 (14:00) 2.5 (14:00) 0 0 0 0 0
31-05-2019 29.7 (15:10) 8.6 (00:00) 19.2 5.28 (17:30) 2.22 (15:50) 0 0 0 0 0
30-05-2019 28 (17:00) 7.3 (00:00) 17.7 5.83 (16:00) 2.5 (12:30) 0 0 0 0 0
29-05-2019 23.4 (16:50) 4.5 (00:00) 13.9 5.56 (18:50) 2.5 (14:40) 0 0 0 0 0
28-05-2019 17.8 (17:40) 7.2 (00:00) 12.5 6.39 (17:20) 2.5 (17:40) 0 0 0 0 0
27-05-2019 18.8 (16:20) 10.4 (00:00) 14.6 6.11 (15:10) 2.5 (14:50) 0 0 0 0 0
26-05-2019 22.8 (16:40) 5.3 (00:00) 14 7.22 (14:30) 2.78 (14:40) 0 0 0 0 0
25-05-2019 20.2 (16:10) 7.5 (00:00) 13.9 6.67 (17:50) 2.5 (17:00) 0 0 0 0 0

Gráficas

Temp. máximas Temp. mínimas Temp. medias Precipitaciones Rachas de viento máximas Velocidades máximas media en intervalos de 10 minutos

Datos horarios

Fecha y hora oficial Temperatura (ºC) Velocidad del viento (km/h) Dirección del viento Racha (km/h) Dirección de racha Precipitación (mm) Presión (hPa) Tendencia (hPa) Humedad (%)
2019-06-23 23:00:00 17 0 Calma 6 Sudoeste 0 -- -- 95
2019-06-23 22:00:00 17.7 0 Calma 5 Noroeste 0 -- -- 92
2019-06-23 21:00:00 19.5 2 Sur 10 Sudoeste 0 -- -- 82
2019-06-23 20:00:00 20.1 3 Norte 10 Este 0 -- -- 86
2019-06-23 19:00:00 20.6 3 Norte 13 Norte 0 -- -- 82
2019-06-23 18:00:00 20.8 4 Norte 10 Nordeste 0 -- -- 81
2019-06-23 17:00:00 21.6 4 Sur 20 Sudoeste 0 -- -- 75
2019-06-23 16:00:00 19.9 4 Norte 21 Sudoeste 0.6 -- -- 85
2019-06-23 15:00:00 21.8 10 Sudoeste 32 Oeste 0.2 -- -- 66
2019-06-23 14:00:00 23 12 Sudoeste 32 Sudoeste 0 -- -- 62
2019-06-23 13:00:00 20.3 8 Sur 20 Sudoeste -- -- -- 75
2019-06-23 12:00:00 16.9 0 Calma 4 Oeste 2.4 -- -- 94
2019-06-23 11:00:00 16.3 0 Calma 26 Sur 3.2 -- -- 95
2019-06-23 10:00:00 17.6 6 Sudeste 20 Sur 0 -- -- 76
2019-06-23 09:00:00 14.7 0 Calma 8 Sudeste 0 -- -- 96
2019-06-23 08:00:00 13.8 2 Norte 10 Sudoeste 0 -- -- 94
2019-06-23 07:00:00 13.9 2 Norte 18 Sur 0.2 -- -- 94
2019-06-23 06:00:00 16.4 10 Sur 31 Sudeste 0 -- -- 67
2019-06-23 05:00:00 15.8 2 Sudoeste 18 Sudeste 0 -- -- 83
2019-06-23 04:00:00 14.8 3 Norte 7 Sur 0 -- -- 98
2019-06-23 03:00:00 14.9 0 Calma 8 Sudoeste 0 -- -- 97
2019-06-23 02:00:00 15.5 2 Sur 6 Sudoeste 0 -- -- 95
2019-06-23 01:00:00 16.2 0 Calma 5 Sur 0 -- -- 94
2019-06-23 00:00:00 16.9 0 Calma 3 Norte -- -- -- 91
2019-06-22 23:00:00 18 0 Calma 5 Sudoeste 0 -- -- 86
2019-06-22 22:00:00 19.9 3 Sudoeste 17 Nordeste 0 -- -- 78
2019-06-22 21:00:00 20.9 5 Norte 23 Nordeste 0 -- -- 71
2019-06-22 20:00:00 22.8 8 Norte 22 Nordeste 0 -- -- 66
2019-06-22 19:00:00 26.9 6 Sur 22 Sur 0 -- -- 38
2019-06-22 18:00:00 27 0 Calma 27 Este 0 -- -- 43
2019-06-22 17:00:00 27.5 5 Oeste 24 Sudeste 0 -- -- 37
2019-06-22 16:00:00 27.2 8 Sur 23 Sudoeste 0 -- -- 34
2019-06-22 15:00:00 25.4 4 Sur 15 Oeste 0 -- -- 44
2019-06-22 14:00:00 23 2 Sudoeste 35 Sur 0 -- -- 59
2019-06-22 13:00:00 23.3 10 Sudoeste 24 Sur 0 -- -- 47
2019-06-22 12:00:00 22.6 7 Sur 21 Sudoeste 0 -- -- 47
2019-06-22 11:00:00 20.2 11 Sur 29 Sudoeste 0 -- -- 50
2019-06-22 10:00:00 18.6 10 Sur 29 Sudoeste 0 -- -- 56
2019-06-22 09:00:00 16.6 3 Norte 25 Sudoeste 0 -- -- 67
2019-06-22 08:00:00 16.4 9 Sudoeste 25 Sur 0 -- -- 66
2019-06-22 07:00:00 16.5 6 Sur 25 Sudeste 0 -- -- 65
2019-06-22 06:00:00 16.1 8 Sur 34 Sudoeste 0 -- -- 68
2019-06-22 05:00:00 10.1 5 Norte 13 Sudoeste 0 -- -- 100
2019-06-22 04:00:00 9.7 2 Sur 8 Noroeste 0 -- -- 99
2019-06-22 03:00:00 11.3 0 Calma 4 Norte 0 -- -- 98
2019-06-22 02:00:00 12.8 2 Oeste 3 Noroeste 0 -- -- 99
2019-06-22 01:00:00 13 0 Calma 2 Noroeste 0 -- -- 98
2019-06-22 00:00:00 13.1 0 Calma 2 Noroeste 0 -- -- 97
2019-06-21 23:00:00 13.3 0 Calma 4 Norte 0 -- -- 96
2019-06-21 22:00:00 13.3 2 Noroeste 8 Noroeste 0 -- -- 95
2019-06-21 21:00:00 13.6 2 Noroeste 11 Norte 0 -- -- 93
2019-06-21 20:00:00 14.1 3 Norte 10 Nordeste 0 -- -- 92
2019-06-21 19:00:00 14.4 3 Noroeste 10 Norte 0 -- -- 90
2019-06-21 18:00:00 14.8 4 Norte 15 Nordeste 0 -- -- 89
2019-06-21 17:00:00 16.2 5 Norte 21 Nordeste 0 -- -- 84
2019-06-21 16:00:00 16.8 7 Norte 19 Norte 0 -- -- 82
2019-06-21 15:00:00 18 7 Norte 17 Norte 0 -- -- 80
2019-06-21 14:00:00 18.3 8 Norte 20 Norte 0 -- -- 79
2019-06-21 13:00:00 16.8 8 Norte 21 Nordeste 0 -- -- 82
2019-06-21 12:00:00 14.7 6 Norte 18 Norte 0 -- -- 85
2019-06-21 11:00:00 13.1 6 Noroeste 13 Norte 0 -- -- 94
2019-06-21 10:00:00 12.3 4 Norte 12 Noroeste 0 -- -- 99
2019-06-21 09:00:00 11.5 3 Noroeste 9 Norte 0 -- -- 100
2019-06-21 08:00:00 11.1 0 Calma 4 Noroeste 0 -- -- 100
2019-06-21 07:00:00 10.9 0 Calma 5 Norte 0 -- -- 100
2019-06-21 06:00:00 11 0 Calma 4 Noroeste 0.2 -- -- 100
2019-06-21 05:00:00 11 0 Calma 4 Norte 0 -- -- 100
2019-06-21 04:00:00 11 0 Calma 10 Noroeste 0 -- -- 100
2019-06-21 03:00:00 11 4 Noroeste 10 Noroeste 0 -- -- 100
2019-06-21 02:00:00 11.2 0 Calma 5 Nordeste 0 -- -- 100
2019-06-21 01:00:00 11.3 0 Calma 9 Noroeste 0 -- -- 100
2019-06-21 00:00:00 11.4 2 Norte 12 Noroeste 0.2 -- -- 100
2019-06-20 23:00:00 11.6 2 Norte 8 Noroeste 0 -- -- 99
2019-06-20 22:00:00 11.8 2 Noroeste 8 Norte 1 -- -- 98
2019-06-20 21:00:00 12.2 3 Norte 9 Noroeste 0.2 -- -- 98
2019-06-20 20:00:00 12.5 3 Norte 9 Noroeste 1.4 -- -- 97
2019-06-20 19:00:00 12.9 3 Noroeste 10 Noroeste 0.6 -- -- 96
2019-06-20 18:00:00 13.8 3 Norte 10 Norte 0 -- -- 90
2019-06-20 17:00:00 14 3 Norte 12 Norte 0 -- -- 91
2019-06-20 16:00:00 13.8 4 Noroeste 11 Norte 0 -- -- 93
2019-06-20 15:00:00 14.1 3 Noroeste 10 Noroeste 0 -- -- 91
2019-06-20 14:00:00 15.1 3 Norte 11 Norte 0 -- -- 87
2019-06-20 13:00:00 15.9 3 Norte 13 Noroeste 0 -- -- 85
2019-06-20 12:00:00 14.9 5 Noroeste 11 Noroeste 0 -- -- 87
2019-06-20 11:00:00 15 4 Norte 15 Nordeste 0 -- -- 88
2019-06-20 10:00:00 14 3 Noroeste 9 Norte 0 -- -- 90
2019-06-20 09:00:00 13.2 2 Oeste 7 Noroeste 0 -- -- 94
2019-06-20 08:00:00 12.6 0 Calma 4 Nordeste 0 -- -- 97
2019-06-20 07:00:00 12.4 0 Calma 4 Noroeste 0 -- -- 99
2019-06-20 06:00:00 12.5 0 Calma 2 Sudoeste 0 -- -- 99
2019-06-20 05:00:00 12.5 0 Calma 2 Sur 0 -- -- 98
2019-06-20 04:00:00 12.6 0 Calma 10 Noroeste 0.2 -- -- 96
2019-06-20 03:00:00 12.9 4 Noroeste 10 Noroeste 0 -- -- 94
2019-06-20 02:00:00 13.2 5 Nordeste 14 Nordeste 0 -- -- 92
2019-06-20 01:00:00 13.3 3 Noroeste 12 Noroeste 0 -- -- 94
2019-06-20 00:00:00 13.6 4 Norte 11 Nordeste 0 -- -- 95
2019-06-19 23:00:00 14.4 4 Norte 10 Noroeste 0 -- -- 91
2019-06-19 22:00:00 15.1 5 Norte 17 Nordeste 0 -- -- 87
2019-06-19 21:00:00 16.6 6 Nordeste 20 Norte 0 -- -- 80
2019-06-19 20:00:00 17.7 5 Norte 14 Norte 0 -- -- 81
2019-06-19 19:00:00 17.9 5 Norte 14 Nordeste 0 -- -- 78
2019-06-19 18:00:00 18.1 4 Norte 15 Nordeste 0 -- -- 77
2019-06-19 17:00:00 18.3 4 Norte 13 Norte 0 -- -- 77
2019-06-19 16:00:00 18.4 6 Norte -- -- -- -- -- 76
2019-06-19 15:00:00 19.2 7 Norte -- -- -- -- -- 77
2019-06-19 14:00:00 18.1 5 Norte 17 Norte 0 -- -- 80
2019-06-19 13:00:00 17.7 5 Norte 14 Norte 0 -- -- 81
2019-06-19 12:00:00 16.8 4 Norte 15 Noroeste 0 -- -- 86
2019-06-19 11:00:00 15.7 5 Noroeste 13 Noroeste 0 -- -- 90
2019-06-19 10:00:00 14.4 5 Noroeste 13 Noroeste 0 -- -- 98
2019-06-19 09:00:00 13.4 0 Calma 4 Nordeste 0 -- -- 100
2019-06-19 08:00:00 12.7 0 Calma 4 Noroeste 0 -- -- 100
2019-06-19 07:00:00 12.9 3 Sur 5 Sudeste 0 -- -- 100
2019-06-19 06:00:00 13.3 0 Calma 5 Sudoeste 0 -- -- 100
2019-06-19 05:00:00 13.6 0 Calma 6 Oeste 0 -- -- 100
2019-06-19 04:00:00 13.9 0 Calma 6 Sudeste 0 -- -- 100
2019-06-19 03:00:00 14.2 2 Norte 7 Este 0 -- -- 100
2019-06-19 02:00:00 14.3 3 Norte 6 Sudoeste 0 -- -- 100
2019-06-19 01:00:00 14.5 0 Calma 5 Sudoeste 0.2 -- -- 100
2019-06-19 00:00:00 14.8 0 Calma 6 Sudoeste 0.2 -- -- 99
2019-06-18 23:00:00 14.9 4 Noroeste 8 Oeste 0 -- -- 98
2019-06-18 22:00:00 15.4 4 Noroeste 9 Oeste 0.8 -- -- 96
2019-06-18 21:00:00 16.6 0 Calma 5 Oeste 0.2 -- -- 94
2019-06-18 20:00:00 18.1 0 Calma 18 Sudeste 0.8 -- -- 88
2019-06-18 19:00:00 20.8 6 Sudoeste 24 Sudoeste 0 -- -- 66
2019-06-18 18:00:00 20.9 8 Sudoeste 30 Sur 0 -- -- 61
2019-06-18 17:00:00 23.5 9 Sudoeste 27 Sudoeste 0 -- -- 49
2019-06-18 16:00:00 22.5 11 Sudoeste 26 Sudoeste 0 -- -- 57
2019-06-18 15:00:00 21.4 6 Sur 27 Sudoeste 0 -- -- 60
2019-06-18 14:00:00 22.5 8 Sur 26 Sudoeste 0 -- -- 50
2019-06-18 13:00:00 23.5 6 Sudoeste 26 Este 0 -- -- 46
2019-06-18 12:00:00 23.1 5 Sudoeste 27 Sudoeste 0 -- -- 42
2019-06-18 11:00:00 20.5 4 Sur 14 Sur 0 -- -- 45
2019-06-18 10:00:00 11.9 2 Norte 9 Sudoeste 0 -- -- 97
2019-06-18 09:00:00 8.5 3 Sudeste 11 Norte 0 -- -- 98
2019-06-18 08:00:00 7.7 4 Norte 9 Este 0 -- -- 99
2019-06-18 07:00:00 7.6 3 Oeste 6 Sudoeste 0 -- -- 99
2019-06-18 06:00:00 8.1 4 Sur 8 Sudoeste 0 -- -- 98
2019-06-18 05:00:00 8.9 2 Sur 6 Sudeste 0 -- -- 98
2019-06-18 04:00:00 10 0 Calma 6 Norte 0 -- -- 96
2019-06-18 03:00:00 11.2 2 Norte 7 Sudeste 0 -- -- 94
2019-06-18 02:00:00 12.4 3 Norte 7 Norte 0 -- -- 90
2019-06-18 01:00:00 13.8 3 Norte 6 Oeste 0 -- -- 92
2019-06-18 00:00:00 14.9 2 Sudoeste 4 Sur 0 -- -- 93
2019-06-17 23:00:00 16.1 0 Calma 3 Noroeste 0 -- -- 91
2019-06-17 22:00:00 17.4 0 Calma 5 Oeste 0 -- -- 85
2019-06-17 21:00:00 18.4 2 Sur 13 Noroeste 0 -- -- 77
2019-06-17 20:00:00 19.1 3 Noroeste 14 Norte 0 -- -- 77
2019-06-17 19:00:00 19.6 6 Norte 22 Nordeste 0 -- -- 73
2019-06-17 18:00:00 20.2 5 Norte 19 Norte 0 -- -- 74
2019-06-17 17:00:00 20.4 9 Norte 23 Norte 0 -- -- 70
2019-06-17 16:00:00 21.3 6 Norte 27 Nordeste 0 -- -- 69
2019-06-17 15:00:00 25.3 5 Sudeste 19 Oeste 0 -- -- 38
2019-06-17 14:00:00 25.1 5 Noroeste 20 Sudoeste 0 -- -- 44
2019-06-17 13:00:00 22.1 7 Norte 23 Norte 0 -- -- 60
2019-06-17 12:00:00 19.8 9 Norte 20 Norte 0 -- -- 70
2019-06-17 11:00:00 15.2 5 Nordeste 13 Norte 0 -- -- 88
2019-06-17 10:00:00 9.1 3 Sur 8 Sudeste 0 -- -- 100
2019-06-17 09:00:00 8 2 Este 6 Sudeste 0 -- -- 100
2019-06-17 08:00:00 7.6 2 Oeste 6 Sudoeste 0 -- -- 100
2019-06-17 07:00:00 7.7 0 Calma 4 Sudoeste 0 -- -- 99
2019-06-17 06:00:00 8.3 2 Sur 5 Sudeste 0 -- -- 99
2019-06-17 05:00:00 9.1 0 Calma 3 Sur 0 -- -- 97
2019-06-17 04:00:00 10.8 0 Calma 4 Sudoeste 0 -- -- 94
2019-06-17 03:00:00 12.1 0 Calma 3 Sudoeste 0 -- -- 97
2019-06-17 02:00:00 12 0 Calma 3 Norte 0 -- -- 98
2019-06-17 01:00:00 11.7 0 Calma 2 Sudeste 0 -- -- 97
2019-06-17 00:00:00 12.3 0 Calma 3 Sudoeste 0 -- -- 93
2019-06-16 23:00:00 14.1 0 Calma 7 Oeste 0 -- -- 89
2019-06-16 22:00:00 15.8 2 Sudeste 10 Noroeste 0 -- -- 84
2019-06-16 21:00:00 16.8 3 Norte 14 Nordeste 0 -- -- 80
2019-06-16 20:00:00 18.6 4 Norte 14 Nordeste 0 -- -- 76
2019-06-16 19:00:00 20 5 Norte 18 Norte 0 -- -- 72
2019-06-16 18:00:00 21.9 6 Norte 17 Norte 0 -- -- 67
2019-06-16 17:00:00 22.2 6 Norte 18 Norte 0 -- -- 66
2019-06-16 16:00:00 22.8 8 Norte 21 Norte 0 -- -- 68
2019-06-16 15:00:00 23 8 Norte 23 Nordeste 0 -- -- 65
2019-06-16 14:00:00 22.1 7 Norte 21 Norte 0 -- -- 63
2019-06-16 13:00:00 20.8 7 Norte 18 Nordeste 0 -- -- 67
2019-06-16 12:00:00 18.4 6 Norte 14 Norte 0 -- -- 68
2019-06-16 11:00:00 13.3 3 Este 6 Sudeste 0 -- -- 84
2019-06-16 10:00:00 8.6 0 Calma 2 Este 0 -- -- 99
2019-06-16 09:00:00 9 0 Calma 3 Norte 0 -- -- 98
2019-06-16 08:00:00 9.1 0 Calma 2 Norte 0 -- -- 97
2019-06-16 07:00:00 10.3 0 Calma 2 Norte 0 -- -- 97
2019-06-16 06:00:00 10.7 0 Calma 5 Nordeste 0 -- -- 95
2019-06-16 05:00:00 10.8 0 Calma 8 Norte 0 -- -- 94
2019-06-16 04:00:00 11 0 Calma 6 Noroeste 0 -- -- 93
2019-06-16 03:00:00 11.2 0 Calma 6 Noroeste 0 -- -- 92
2019-06-16 02:00:00 11.3 2 Noroeste 10 Noroeste 0 -- -- 90
2019-06-16 01:00:00 11.5 0 Calma 12 Oeste 0 -- -- 88
2019-06-16 00:00:00 11.8 4 Noroeste 11 Noroeste 0 -- -- 88
2019-06-15 23:00:00 12.1 4 Noroeste 13 Norte 0 -- -- 87
2019-06-15 22:00:00 12.6 4 Norte 11 Norte 0 -- -- 84
2019-06-15 21:00:00 13.6 4 Norte 15 Nordeste 0 -- -- 81
2019-06-15 20:00:00 15.1 5 Norte 17 Nordeste 0 -- -- 76
2019-06-15 19:00:00 17.9 8 Norte 20 Nordeste 0 -- -- 69
2019-06-15 18:00:00 16.2 7 Norte 23 Nordeste 0 -- -- 73
2019-06-15 17:00:00 19 8 Norte 22 Norte 0 -- -- 60
2019-06-15 16:00:00 19.9 8 Norte 23 Norte 0 -- -- 60
2019-06-15 15:00:00 19.9 8 Norte 16 Nordeste 0 -- -- 61
2019-06-15 14:00:00 19.1 4 Norte 10 Norte 0 -- -- 49
2019-06-15 13:00:00 17.3 4 Sudoeste 22 Sudoeste 0 -- -- 51
2019-06-15 12:00:00 16.1 3 Sudoeste 17 Sur 0 -- -- 55
2019-06-15 11:00:00 13.4 3 Nordeste 9 Sudeste 0 -- -- 74
2019-06-15 10:00:00 9.5 0 Calma 4 Oeste 0 -- -- 94
2019-06-15 09:00:00 7 2 Norte 3 Norte 0 -- -- 100
2019-06-15 08:00:00 4.9 0 Calma 4 Sudeste 0 -- -- 100
2019-06-15 07:00:00 5.3 2 Sudeste 4 Sur 0 -- -- 99
2019-06-15 06:00:00 6.5 2 Sur 5 Sudoeste 0 -- -- 99
2019-06-15 05:00:00 6.9 0 Calma 5 Oeste 0 -- -- 99
2019-06-15 04:00:00 8.2 0 Calma 4 Norte 0 -- -- 98
2019-06-15 03:00:00 9.7 0 Calma 4 Este 0 -- -- 99
2019-06-15 02:00:00 9.9 0 Calma 3 Este 0 -- -- 98
2019-06-15 01:00:00 10.2 0 Calma 10 Noroeste 0 -- -- 95
2019-06-15 00:00:00 10.3 3 Noroeste 10 Noroeste 0 -- -- 95
2019-06-14 23:00:00 10.4 2 Sur 6 Oeste 0 -- -- 96
2019-06-14 22:00:00 10.9 3 Noroeste 18 Norte 0.2 -- -- 93
2019-06-14 21:00:00 11.8 4 Norte 12 Norte 0 -- -- 89
2019-06-14 20:00:00 12.4 4 Norte 13 Noroeste 0 -- -- 86
2019-06-14 19:00:00 12.7 2 Norte 8 Norte 0 -- -- 85
2019-06-14 18:00:00 12.9 3 Norte 15 Nordeste 0 -- -- 85
2019-06-14 17:00:00 13.5 4 Norte 18 Norte 0 -- -- 81
2019-06-14 16:00:00 14.6 7 Norte 20 Noroeste 0 -- -- 77
2019-06-14 15:00:00 15.4 6 Norte 18 Norte 0 -- -- 73
2019-06-14 14:00:00 16.5 6 Norte 17 Nordeste 0 -- -- 74
2019-06-14 13:00:00 16.9 9 Norte 19 Norte 0 -- -- 71
2019-06-14 12:00:00 16.1 7 Norte 17 Norte 0 -- -- 73
2019-06-14 11:00:00 12.6 5 Norte 14 Noroeste 0 -- -- 81
2019-06-14 10:00:00 8.4 0 Calma 3 Norte 0 -- -- 95
2019-06-14 09:00:00 6.1 0 Calma 3 Sudoeste 0 -- -- 99
2019-06-14 08:00:00 6.3 0 Calma 6 Sudoeste 0 -- -- 96
2019-06-14 07:00:00 6.4 2 Sur 4 Sur 0 -- -- 98
2019-06-14 06:00:00 6.6 0 Calma 5 Sudoeste 0 -- -- 95
2019-06-14 05:00:00 7.8 2 Sur 5 Sur 0 -- -- 96
2019-06-14 04:00:00 9 0 Calma 2 Nordeste 0 -- -- 99
2019-06-14 03:00:00 9.3 0 Calma 2 Norte 0 -- -- 99
2019-06-14 02:00:00 9.3 0 Calma 3 Noroeste 0 -- -- 98
2019-06-14 01:00:00 9.4 0 Calma 5 Noroeste 0 -- -- 97
2019-06-14 00:00:00 9.5 0 Calma 2 Noroeste 0 -- -- 98
2019-06-13 23:00:00 9.6 0 Calma 5 Noroeste 0 -- -- 96
2019-06-13 22:00:00 9.7 2 Norte 9 Noroeste 0 -- -- 95
2019-06-13 21:00:00 10.1 3 Noroeste 10 Noroeste 0 -- -- 92
2019-06-13 20:00:00 10.6 3 Noroeste 8 Norte 0 -- -- 89
2019-06-13 19:00:00 10.8 3 Norte 10 Nordeste 0 -- -- 87
2019-06-13 18:00:00 11.2 4 Norte 15 Norte 0 -- -- 86
2019-06-13 17:00:00 12.3 4 Norte 14 Norte 0 -- -- 82
2019-06-13 16:00:00 12.9 4 Norte 14 Nordeste 0 -- -- 79
2019-06-13 15:00:00 13.1 3 Norte 15 Norte 0 -- -- 78
2019-06-13 14:00:00 13.5 5 Norte 14 Noroeste 0 -- -- 75
2019-06-13 13:00:00 12.6 5 Norte 19 Nordeste 0 -- -- 74
2019-06-13 12:00:00 11.4 4 Norte 19 Norte 0 -- -- 82
2019-06-13 11:00:00 11.1 6 Norte 17 Norte 0 -- -- 84
2019-06-13 10:00:00 9.6 2 Sudeste 4 Sudoeste 0 -- -- 86
2019-06-13 09:00:00 8.5 2 Sudoeste 6 Sur 0 -- -- 89
2019-06-13 08:00:00 8.4 0 Calma 3 Noroeste 0 -- -- 97
2019-06-13 07:00:00 8.3 0 Calma 2 Sudoeste 0 -- -- 97
2019-06-13 06:00:00 8.3 0 Calma 2 Noroeste 0 -- -- 97
2019-06-13 05:00:00 8.4 0 Calma 4 Noroeste 0 -- -- 96
2019-06-13 04:00:00 8.3 2 Noroeste 6 Noroeste -- -- -- 95
2019-06-13 03:00:00 8.5 0 Calma 7 Noroeste 0 -- -- 94
2019-06-13 02:00:00 8.6 3 Noroeste 8 Norte 0 -- -- 95
2019-06-13 01:00:00 8.7 0 Calma 6 Norte 0 -- -- 95
2019-06-13 00:00:00 8.8 0 Calma 8 Norte 0 -- -- 94
2019-06-12 23:00:00 8.8 3 Noroeste 8 Noroeste 0 -- -- 95
2019-06-12 22:00:00 9.3 3 Noroeste 9 Nordeste 0.2 -- -- 93
2019-06-12 21:00:00 10.4 2 Norte 10 Nordeste 0 -- -- 86
2019-06-12 20:00:00 11.3 5 Norte 19 Nordeste 0 -- -- 80
2019-06-12 19:00:00 12.6 5 Norte 19 Nordeste 0 -- -- 77
2019-06-12 18:00:00 14.4 6 Norte 20 Norte 0 -- -- 67
2019-06-12 17:00:00 14.6 4 Norte 17 Norte 0 -- -- 65
2019-06-12 16:00:00 15.4 6 Norte 18 Norte 0 -- -- 61
2019-06-12 15:00:00 15.6 9 Norte 17 Norte 0 -- -- 57
2019-06-12 14:00:00 14.5 6 Norte 15 Noroeste 0 -- -- 65
2019-06-12 13:00:00 13.3 6 Norte 14 Nordeste 0 -- -- 66
2019-06-12 12:00:00 12.7 4 Norte 17 Norte 0 -- -- 66
2019-06-12 11:00:00 11.2 4 Nordeste 13 Sudeste 0 -- -- 63
2019-06-12 10:00:00 7.1 0 Calma 5 Oeste 0 -- -- 99
2019-06-12 09:00:00 5.9 2 Sur 4 Este 0 -- -- 100
2019-06-12 08:00:00 4.8 3 Sur 5 Sudeste 0 -- -- 100
2019-06-12 07:00:00 4.8 2 Oeste 4 Oeste 0 -- -- 100
2019-06-12 06:00:00 4.2 0 Calma 4 Sudoeste 0 -- -- 100
2019-06-12 05:00:00 3.9 2 Sur 6 Sudoeste 0 -- -- 98
2019-06-12 04:00:00 4.7 0 Calma 5 Oeste 0.2 -- -- 97
2019-06-12 03:00:00 6.3 0 Calma 5 Sudoeste 0 -- -- 96
2019-06-12 02:00:00 7.2 0 Calma 5 Sudoeste 0 -- -- 96
2019-06-12 01:00:00 7.6 4 Sudoeste 7 Oeste 0 -- -- 87
2019-06-12 00:00:00 7.7 2 Sur 5 Noroeste 0 -- -- 98
2019-06-11 23:00:00 7.9 0 Calma 3 Oeste 0 -- -- 95
2019-06-11 22:00:00 9.2 2 Sudoeste 7 Norte 0 -- -- 90
2019-06-11 21:00:00 10.1 3 Norte 9 Norte 0 -- -- 85
2019-06-11 20:00:00 10.5 2 Norte 10 Oeste 0.2 -- -- 86
2019-06-11 19:00:00 11 2 Norte 11 Norte 0 -- -- 83
2019-06-11 18:00:00 10.6 4 Norte 20 Norte 0 -- -- 85
2019-06-11 17:00:00 12.1 4 Norte 17 Nordeste 0.4 -- -- 74
2019-06-11 16:00:00 11.5 5 Norte 16 Nordeste 0.2 -- -- 76
2019-06-11 15:00:00 10.8 6 Norte 18 Norte 0.2 -- -- 83
2019-06-11 14:00:00 10 6 Norte 22 Noroeste 0.4 -- -- 87
2019-06-11 13:00:00 11.7 7 Norte 19 Norte 0 -- -- 81
2019-06-11 12:00:00 8.8 5 Norte 16 Norte 0 -- -- 87
2019-06-11 11:00:00 8.4 5 Norte 13 Nordeste 0.2 -- -- 93
2019-06-11 10:00:00 7.1 3 Noroeste 10 Nordeste 0.2 -- -- 98
2019-06-11 09:00:00 7.1 3 Noroeste 8 Norte 0 -- -- 99
2019-06-11 08:00:00 6.8 3 Noroeste 12 Norte 1 -- -- 100
2019-06-11 07:00:00 6.6 3 Norte 12 Norte 2 -- -- 99
2019-06-11 06:00:00 7.1 4 Noroeste 20 Norte 0.6 -- -- 98
2019-06-11 05:00:00 7.2 4 Norte 11 Norte 2.2 -- -- 100
2019-06-11 04:00:00 7.8 0 Calma 3 Oeste 0.4 -- -- 100
2019-06-11 03:00:00 7.8 2 Sudeste 4 Noroeste 0.2 -- -- 100
2019-06-11 02:00:00 8 2 Nordeste 4 Nordeste 0.2 -- -- 100
2019-06-11 01:00:00 8.1 0 Calma 6 Noroeste 0 -- -- 99
2019-06-11 00:00:00 8 3 Norte 14 Nordeste 0 -- -- 99
2019-06-10 23:00:00 8.5 4 Norte 11 Norte 0.6 -- -- 99
2019-06-10 22:00:00 8.9 4 Noroeste 11 Noroeste 0.6 -- -- 98
2019-06-10 21:00:00 9.4 4 Norte 17 Norte 0.4 -- -- 95
2019-06-10 20:00:00 10.7 5 Norte 15 Norte 0 -- -- 87
2019-06-10 19:00:00 12.3 5 Norte 19 Norte 0 -- -- 78
2019-06-10 18:00:00 13.6 5 Norte 16 Norte 0 -- -- 76
2019-06-10 17:00:00 15.2 6 Norte 21 Norte 0 -- -- 70
2019-06-10 16:00:00 16 6 Norte 18 Norte 0 -- -- 65
2019-06-10 15:00:00 15.6 7 Norte 17 Norte 0 -- -- 60
2019-06-10 14:00:00 15.1 7 Norte 15 Norte 0 -- -- 61
2019-06-10 13:00:00 14.8 6 Norte 15 Norte 0 -- -- 61
2019-06-10 12:00:00 14.7 6 Norte 13 Norte 0 -- -- 58
2019-06-10 11:00:00 11.2 3 Norte 6 Norte 0 -- -- 76
2019-06-10 10:00:00 9.1 0 Calma 3 Sudeste 0 -- -- 87
2019-06-10 09:00:00 7.2 0 Calma 2 Noroeste 0 -- -- 94
2019-06-10 08:00:00 6 0 Calma 4 Sudoeste 0 -- -- 98
2019-06-10 07:00:00 5.6 0 Calma 4 Sur 0 -- -- 94
2019-06-10 06:00:00 7.2 2 Sur 8 Sur 0 -- -- 90
2019-06-10 05:00:00 7.9 4 Sudeste 10 Sudeste 0 -- -- 87
2019-06-10 04:00:00 8.9 2 Sudeste 5 Sudeste 0 -- -- 96
2019-06-10 03:00:00 9 0 Calma 2 Sudeste 0 -- -- 97
2019-06-10 02:00:00 9 0 Calma 4 Noroeste 0 -- -- 96
2019-06-10 01:00:00 9 2 Norte 5 Noroeste 0 -- -- 97
2019-06-10 00:00:00 9.3 0 Calma 10 Noroeste 0 -- -- 96
2019-06-09 23:00:00 9.3 5 Noroeste 9 Noroeste 0 -- -- 95
2019-06-09 22:00:00 9.5 4 Noroeste 10 Nordeste 0 -- -- 94
2019-06-09 21:00:00 9.7 5 Noroeste 10 Norte 0 -- -- 93
2019-06-09 20:00:00 10.1 5 Noroeste 11 Noroeste 0 -- -- 92
2019-06-09 19:00:00 10.4 4 Noroeste 13 Nordeste 0 -- -- 93
2019-06-09 18:00:00 11 5 Noroeste 9 Noroeste 0 -- -- 90
2019-06-09 17:00:00 11 3 Norte 14 Nordeste 0 -- -- 91
2019-06-09 16:00:00 11.9 6 Norte 32 Norte 0 -- -- 85
2019-06-09 15:00:00 14 9 Norte 23 Norte 0 -- -- 80
2019-06-09 14:00:00 15.2 5 Norte 15 Nordeste 0 -- -- 74
2019-06-09 13:00:00 14.4 6 Norte 15 Norte 0 -- -- 73
2019-06-09 12:00:00 14.1 5 Norte 10 Norte 0 -- -- 76
2019-06-09 11:00:00 11.9 4 Norte 9 Noroeste 0 -- -- 80
2019-06-09 10:00:00 10.7 0 Calma 5 Norte 0 -- -- 85
2019-06-09 09:00:00 9.7 0 Calma 2 Norte 0 -- -- 95
2019-06-09 08:00:00 9.3 0 Calma 3 Sudeste 0 -- -- 98
2019-06-09 07:00:00 9.3 0 Calma 2 Sudoeste 0 -- -- 98
2019-06-09 06:00:00 9.5 0 Calma 2 Norte 0 -- -- 99
2019-06-09 05:00:00 9.6 0 Calma 3 Nordeste 0 -- -- 99
2019-06-09 04:00:00 9.7 0 Calma 3 Norte 0 -- -- 98
2019-06-09 03:00:00 9.7 0 Calma 3 Noroeste 0 -- -- 98
2019-06-09 02:00:00 9.7 0 Calma 3 Norte 0 -- -- 98
2019-06-09 01:00:00 9.8 0 Calma 2 Noroeste 0 -- -- 98
2019-06-09 00:00:00 9.9 0 Calma 5 Oeste 0 -- -- 97
2019-06-08 23:00:00 10 0 Calma 5 Noroeste 0 -- -- 96
2019-06-08 22:00:00 10 3 Norte 12 Noroeste 0 -- -- 96
2019-06-08 21:00:00 10.2 3 Norte 9 Noroeste 0.2 -- -- 95
2019-06-08 20:00:00 10.5 2 Norte 6 Noroeste 0 -- -- 91
2019-06-08 19:00:00 10.9 3 Noroeste 10 Norte 0 -- -- 87
2019-06-08 18:00:00 11.4 4 Norte 14 Norte 0 -- -- 86
2019-06-08 17:00:00 12.6 4 Norte 17 Norte 0 -- -- 81
2019-06-08 16:00:00 14.3 6 Norte 27 Nordeste 0 -- -- 74
2019-06-08 15:00:00 15.9 9 Norte 30 Norte 0 -- -- 69
2019-06-08 14:00:00 17.1 9 Norte 23 Norte 0 -- -- 69
2019-06-08 13:00:00 16.1 8 Norte 19 Norte 0 -- -- 67
2019-06-08 12:00:00 13.4 5 Norte 17 Nordeste 0 -- -- 73
2019-06-08 11:00:00 9.1 2 Este 3 Este 0 -- -- 81
2019-06-08 10:00:00 5.2 0 Calma 2 Norte 0 -- -- 100
2019-06-08 09:00:00 3.9 2 Norte 3 Norte 0 -- -- 100
2019-06-08 08:00:00 2.4 0 Calma 4 Sur 0 -- -- 100
2019-06-08 07:00:00 2.2 0 Calma 3 Sudoeste 0 -- -- 100
2019-06-08 06:00:00 2.5 0 Calma 3 Sur 0 -- -- 100
2019-06-08 05:00:00 2.9 0 Calma 4 Sur 0 -- -- 99
2019-06-08 04:00:00 3.4 0 Calma 3 Sudeste 0 -- -- 99
2019-06-08 03:00:00 4.2 0 Calma 3 Sudoeste 0 -- -- 99
2019-06-08 02:00:00 4.7 0 Calma 4 Sudoeste 0 -- -- 98
2019-06-08 01:00:00 5.6 2 Sudoeste 4 Sudoeste 0 -- -- 97
2019-06-08 00:00:00 7 3 Sudoeste 5 Sudoeste 0 -- -- 94
2019-06-07 23:00:00 8.6 3 Sur 5 Este 0 -- -- 93
2019-06-07 22:00:00 9.2 2 Norte 13 Norte 0 -- -- 90
2019-06-07 21:00:00 11 2 Sudeste 13 Este 0 -- -- 80
2019-06-07 20:00:00 11.6 3 Este 9 Noroeste 0.2 -- -- 68
2019-06-07 19:00:00 11.4 3 Sudoeste 17 Este 0 -- -- 70
2019-06-07 18:00:00 11 12 Este 26 Este 0 -- -- 65
2019-06-07 17:00:00 12.9 4 Norte 21 Sudeste 0 -- -- 57
2019-06-07 16:00:00 12.4 3 Sudoeste 15 Nordeste 0 -- -- 57
2019-06-07 15:00:00 11.3 2 Sudoeste 17 Este 0 -- -- 65
2019-06-07 14:00:00 11.8 5 Norte 18 Norte 0 -- -- 71
2019-06-07 13:00:00 10.7 6 Norte 24 Sudeste 0 -- -- 67
2019-06-07 12:00:00 10.9 6 Sudeste 24 Este 0 -- -- 58
2019-06-07 11:00:00 9.5 6 Nordeste 32 Nordeste 0 -- -- 69
2019-06-07 10:00:00 8.8 9 Nordeste 50 Este 0 -- -- 69
2019-06-07 09:00:00 7.7 11 Este 30 Nordeste 0.4 -- -- 78
2019-06-07 08:00:00 7.8 7 Norte 42 Nordeste 0.2 -- -- 75
2019-06-07 07:00:00 7.6 8 Nordeste 26 Nordeste 0.2 -- -- 78
2019-06-07 06:00:00 8.3 6 Este 31 Nordeste 0 -- -- 71
2019-06-07 05:00:00 8.5 4 Este 36 Nordeste 0 -- -- 69
2019-06-07 04:00:00 8.1 14 Nordeste 38 Este 0.4 -- -- 72
2019-06-07 03:00:00 8 6 Noroeste 23 Sudeste 0 -- -- 80
2019-06-07 02:00:00 9.5 8 Sur 28 Sudeste 0 -- -- 64
2019-06-07 01:00:00 9.3 4 Nordeste 29 Sudeste 0 -- -- 71
2019-06-07 00:00:00 9 2 Nordeste 36 Sur 0.2 -- -- 85
2019-06-06 23:00:00 10.2 10 Sur 27 Sudeste 0 -- -- 64
2019-06-06 22:00:00 10 6 Sudoeste 33 Sudeste 0 -- -- 69
2019-06-06 21:00:00 11.1 6 Sur 30 Sudeste 0.4 -- -- 83
2019-06-06 20:00:00 10.6 3 Noroeste 11 Sudoeste 4.6 -- -- 98
2019-06-06 19:00:00 11.6 5 Sur 26 Oeste 3 -- -- 87
2019-06-06 18:00:00 11.2 6 Sur 35 Sudoeste 5.4 -- -- 84
2019-06-06 17:00:00 12.3 9 Sur 35 Sudoeste 1.6 -- -- 76
2019-06-06 16:00:00 15 18 Sur 53 Sur 0.2 -- -- 64
2019-06-06 15:00:00 16 11 Sudoeste 44 Sur 0 -- -- 55
2019-06-06 14:00:00 16.5 17 Sudoeste 46 Sudoeste 0 -- -- 49
2019-06-06 13:00:00 15.3 14 Sur 41 Sudoeste 0 -- -- 56
2019-06-06 12:00:00 12.7 16 Sudoeste 41 Sudoeste 0 -- -- 58
2019-06-06 11:00:00 11.8 11 Sudoeste 34 Sudoeste 0 -- -- 60
2019-06-06 10:00:00 10.5 11 Sudoeste 33 Sudoeste 0 -- -- 67
2019-06-06 09:00:00 5.9 3 Norte 18 Sudoeste 0 -- -- 99
2019-06-06 08:00:00 4.9 3 Norte 8 Norte 0 -- -- 100
2019-06-06 07:00:00 4.5 0 Calma 4 Sur 0 -- -- 100
2019-06-06 06:00:00 3.8 0 Calma 3 Oeste 0 -- -- 100
2019-06-06 05:00:00 3.7 0 Calma 4 Sudoeste 0 -- -- 100
2019-06-06 04:00:00 3.7 0 Calma 5 Sudeste 0 -- -- 100
2019-06-06 03:00:00 4.2 2 Sudoeste 4 Oeste 0 -- -- 99
2019-06-06 02:00:00 4.8 2 Oeste 5 Oeste 0 -- -- 99
2019-06-06 01:00:00 5.2 0 Calma 4 Sudoeste 0 -- -- 98
2019-06-06 00:00:00 6.2 0 Calma 4 Oeste 0 -- -- 98
2019-06-05 23:00:00 6.8 0 Calma 5 Oeste 0 -- -- 96
2019-06-05 22:00:00 7.6 3 Noroeste 27 Nordeste 0.6 -- -- 89
2019-06-05 21:00:00 9.5 2 Norte 7 Noroeste 0 -- -- 90
2019-06-05 20:00:00 9.6 3 Oeste 19 Este 0 -- -- 82
2019-06-05 19:00:00 10.9 3 Norte 25 Nordeste 0.2 -- -- 79
2019-06-05 18:00:00 12.8 3 Noroeste 13 Sudoeste 0 -- -- 71
2019-06-05 17:00:00 11.5 5 Sur 29 Norte 0.6 -- -- 76
2019-06-05 16:00:00 13 8 Nordeste 19 Nordeste 0 -- -- 59
2019-06-05 15:00:00 10.5 7 Nordeste 24 Este 0.6 -- -- 84
2019-06-05 14:00:00 10.5 10 Este 25 Norte 0.2 -- -- 78
2019-06-05 13:00:00 11.9 4 Norte 11 Norte 0.2 -- -- 81
2019-06-05 12:00:00 10.4 3 Norte 6 Sur 0 -- -- 85
2019-06-05 11:00:00 9 2 Noroeste 9 Nordeste 0.2 -- -- 94
2019-06-05 10:00:00 9.1 2 Noroeste 4 Noroeste 0 -- -- 94
2019-06-05 09:00:00 8.6 0 Calma 4 Norte 0.4 -- -- 98
2019-06-05 08:00:00 8.2 0 Calma 4 Oeste 0.4 -- -- 100
2019-06-05 07:00:00 8.2 0 Calma 2 Nordeste 0.6 -- -- 100
2019-06-05 06:00:00 8.3 0 Calma 2 Oeste 0 -- -- 99
2019-06-05 05:00:00 8.4 0 Calma 3 Sudoeste 0 -- -- 98
2019-06-05 04:00:00 8.5 0 Calma 7 Nordeste 0 -- -- 97
2019-06-05 03:00:00 9 0 Calma 3 Noroeste 0 -- -- 100
2019-06-05 02:00:00 9.2 0 Calma 6 Oeste 0.2 -- -- 99
2019-06-05 01:00:00 9.4 0 Calma 3 Oeste 0 -- -- 98
2019-06-05 00:00:00 9.7 2 Sudoeste 4 Norte 0 -- -- 97
2019-06-04 23:00:00 9.9 2 Norte 14 Este 0.6 -- -- 96
2019-06-04 22:00:00 10.7 0 Calma 10 Noroeste 0.4 -- -- 95
2019-06-04 21:00:00 11.2 4 Noroeste 29 Nordeste 2.2 -- -- 94
2019-06-04 20:00:00 13.7 6 Norte 17 Noroeste 0 -- -- 82
2019-06-04 19:00:00 16.7 3 Norte 19 Nordeste 0 -- -- 64
2019-06-04 18:00:00 17.7 5 Este 13 Este 0 -- -- 55
2019-06-04 17:00:00 16.7 4 Noroeste 18 Sudeste 0.2 -- -- 72
2019-06-04 16:00:00 14.3 3 Nordeste 18 Este 0.8 -- -- 87
2019-06-04 15:00:00 14.5 3 Norte 15 Noroeste 0.8 -- -- 92
2019-06-04 14:00:00 15 4 Nordeste 12 Este 1.4 -- -- 91
2019-06-04 13:00:00 14.6 4 Norte 24 Nordeste 1.6 -- -- 94
2019-06-04 12:00:00 17.3 4 Oeste 19 Sudeste 0 -- -- 69
2019-06-04 11:00:00 17.1 5 Sur 15 Sur 0 -- -- 62
2019-06-04 10:00:00 16.3 6 Sudoeste 19 Sur 0 -- -- 65
2019-06-04 09:00:00 11.9 3 Sur 19 Sur 0 -- -- 89
2019-06-04 08:00:00 10.5 3 Sur 6 Sudoeste 0 -- -- 96
2019-06-04 07:00:00 11.4 4 Sudoeste 6 Sudeste 0 -- -- 97
2019-06-04 06:00:00 12.1 2 Oeste 7 Oeste 0 -- -- 99
2019-06-04 05:00:00 12.4 4 Sudoeste 6 Oeste 0 -- -- 95
2019-06-04 04:00:00 13.9 0 Calma 3 Oeste 0 -- -- 95
2019-06-04 03:00:00 14.7 0 Calma 13 Noroeste 0 -- -- 96
2019-06-04 02:00:00 15.4 0 Calma 11 Norte 0 -- -- 95
2019-06-04 01:00:00 15.4 2 Norte 11 Noroeste 0 -- -- 96
2019-06-04 00:00:00 15.8 3 Norte 12 Noroeste 0 -- -- 95
2019-06-03 23:00:00 16.4 2 Norte 13 Norte 0 -- -- 92
2019-06-03 22:00:00 17.1 2 Oeste 12 Noroeste 0 -- -- 89
2019-06-03 21:00:00 17.7 3 Noroeste 17 Noroeste 0 -- -- 86
2019-06-03 20:00:00 18.2 6 Norte 17 Norte 0 -- -- 85
2019-06-03 19:00:00 19.2 6 Noroeste 15 Norte 0 -- -- 82
2019-06-03 18:00:00 20.6 5 Norte 22 Nordeste 0 -- -- 79
2019-06-03 17:00:00 21.7 10 Norte 27 Nordeste 0 -- -- 74
2019-06-03 16:00:00 23.5 9 Norte 23 Norte 0 -- -- 69
2019-06-03 15:00:00 22.9 8 Norte 20 Norte 0 -- -- 66
2019-06-03 14:00:00 23.1 8 Norte 22 Norte 0 -- -- 64
2019-06-03 13:00:00 23.4 7 Norte 17 Norte 0 -- -- 62
2019-06-03 12:00:00 21.5 5 Norte 18 Norte 0 -- -- 62
2019-06-03 11:00:00 17.4 0 Calma 5 Noroeste 0 -- -- 78
2019-06-03 10:00:00 15.7 2 Sur 4 Sudeste 0 -- -- 85
2019-06-03 09:00:00 14.1 0 Calma 3 Noroeste 0 -- -- 95
2019-06-03 08:00:00 13 0 Calma 3 Sudoeste 0 -- -- 97
2019-06-03 07:00:00 12.8 0 Calma 4 Sur 0 -- -- 95
2019-06-03 06:00:00 13.1 0 Calma 10 Sudeste 0 -- -- 94
2019-06-03 05:00:00 13 0 Calma 3 Sudoeste 0 -- -- 94
2019-06-03 04:00:00 13.5 0 Calma 4 Sudoeste 0 -- -- 91
2019-06-03 03:00:00 14 3 Sur 14 Nordeste 0 -- -- 88
2019-06-03 02:00:00 13.9 0 Calma 4 Sudeste 0 -- -- 93
2019-06-03 01:00:00 14.5 2 Oeste 4 Este 0 -- -- 91
2019-06-03 00:00:00 15.2 2 Sudoeste 6 Noroeste 0 -- -- 86
2019-06-02 23:00:00 16.5 0 Calma 7 Noroeste 0 -- -- 82
2019-06-02 22:00:00 17.8 3 Norte 13 Noroeste 0 -- -- 77
2019-06-02 21:00:00 18.9 5 Noroeste 19 Norte 0 -- -- 74
2019-06-02 20:00:00 21 6 Norte 22 Norte 0 -- -- 64
2019-06-02 19:00:00 23.6 7 Norte 16 Norte 0 -- -- 60
2019-06-02 18:00:00 24.4 6 Norte 17 Norte 0 -- -- 55
2019-06-02 17:00:00 26 4 Oeste 16 Nordeste 0 -- -- 50
2019-06-02 16:00:00 26 4 Norte 13 Nordeste 0 -- -- 47
2019-06-02 15:00:00 25.6 5 Norte 12 Noroeste 0 -- -- 51
2019-06-02 14:00:00 26.6 4 Norte 10 Noroeste 0 -- -- 46
2019-06-02 13:00:00 25.7 2 Norte 5 Nordeste 0 -- -- 35
2019-06-02 12:00:00 21.2 0 Calma 3 Nordeste 0 -- -- 56
2019-06-02 11:00:00 16.5 0 Calma 4 Nordeste 0 -- -- 77
2019-06-02 10:00:00 -- -- -- -- -- -- -- -- --
2019-06-02 09:00:00 12.3 0 Calma 5 Sur 0 -- -- 95
2019-06-02 08:00:00 10 2 Sudoeste 5 Sudoeste 0 -- -- 96
2019-06-02 07:00:00 9.6 2 Sudeste 5 Sur 0 -- -- 96
2019-06-02 06:00:00 10.3 0 Calma 5 Sudoeste 0 -- -- 96
2019-06-02 05:00:00 11.2 0 Calma 5 Sur 0 -- -- 96
2019-06-02 04:00:00 11.9 0 Calma 5 Sudoeste 0 -- -- 95
2019-06-02 03:00:00 12.2 2 Sur 5 Sur 0 -- -- 95
2019-06-02 02:00:00 13 0 Calma 5 Sur 0 -- -- 93
2019-06-02 01:00:00 13.8 0 Calma 3 Sudoeste 0 -- -- 90
2019-06-02 00:00:00 15.1 0 Calma 3 Sudeste 0 -- -- 87
2019-06-01 23:00:00 16.8 0 Calma 4 Sudoeste 0 -- -- 81
2019-06-01 22:00:00 19.1 0 Calma 6 Sur 0 -- -- 75
2019-06-01 21:00:00 21.6 2 Noroeste 13 Noroeste 0 -- -- 66
2019-06-01 20:00:00 25.1 4 Noroeste 15 Norte 0 -- -- 53
2019-06-01 19:00:00 27.3 5 Noroeste 14 Norte 0 -- -- 49
2019-06-01 18:00:00 28.4 6 Norte 20 Nordeste 0 -- -- 49
2019-06-01 17:00:00 28.5 6 Norte 16 Nordeste 0 -- -- 57
2019-06-01 16:00:00 29.1 6 Norte 17 Norte 0 -- -- 48
2019-06-01 15:00:00 31.3 3 Nordeste 17 Sur 0 -- -- 30
2019-06-01 14:00:00 31 9 Sur 21 Sudeste 0 -- -- 29
2019-06-01 13:00:00 30.3 6 Sur 19 Sudoeste 0 -- -- 35
2019-06-01 12:00:00 27.2 5 Sur 12 Sur 0 -- -- 37
2019-06-01 11:00:00 18.3 0 Calma 7 Nordeste 0 -- -- 72
2019-06-01 10:00:00 11.2 2 Norte 5 Sur 0 -- -- 97
2019-06-01 09:00:00 10.8 0 Calma 5 Sudoeste 0 -- -- 94
2019-06-01 08:00:00 10.6 0 Calma 5 Sudoeste 0 -- -- 92
2019-06-01 07:00:00 10.6 3 Sur 6 Sur 0 -- -- 91
2019-06-01 06:00:00 10.8 3 Sur 5 Sur 0 -- -- 90
2019-06-01 05:00:00 11 0 Calma 5 Sur 0 -- -- 88
2019-06-01 04:00:00 11.2 2 Sur 6 Sur -- -- -- 87
2019-06-01 03:00:00 11.4 3 Sur 7 Sur 0 -- -- 85
2019-06-01 02:00:00 12.1 2 Sur 5 Sur 0 -- -- 83
2019-06-01 01:00:00 12.8 2 Sur 4 Sudoeste 0 -- -- 81
2019-06-01 00:00:00 13.8 0 Calma 5 Sudoeste 0 -- -- 76
2019-05-31 23:00:00 15.1 3 Sur 4 Sur 0 -- -- 74
2019-05-31 22:00:00 17.3 0 Calma 4 Oeste 0 -- -- 68
2019-05-31 21:00:00 20.3 3 Sur 8 Sur 0 -- -- 61
2019-05-31 20:00:00 25.6 2 Noroeste 12 Noroeste 0 -- -- 40
2019-05-31 19:00:00 28 4 Noroeste 15 Norte 0 -- -- 38
2019-05-31 18:00:00 28.9 6 Norte 19 Norte 0 -- -- 38
2019-05-31 17:00:00 29.5 7 Norte 15 Norte 0 -- -- 39
2019-05-31 16:00:00 29.6 7 Norte 18 Noroeste 0 -- -- 39
2019-05-31 15:00:00 29.6 7 Norte 17 Norte 0 -- -- 40
2019-05-31 14:00:00 29.1 5 Norte 14 Noroeste 0 -- -- 41
2019-05-31 13:00:00 28.1 4 Norte 14 Norte 0 -- -- 36
2019-05-31 12:00:00 24.8 3 Norte 6 Nordeste 0 -- -- 52
2019-05-31 11:00:00 16.5 0 Calma 2 Este 0 -- -- 77
2019-05-31 10:00:00 9.9 0 Calma 2 Sudeste 0 -- -- 100
2019-05-31 09:00:00 9.5 0 Calma 4 Sur 0 -- -- 99
2019-05-31 08:00:00 9 2 Sur 5 Sur 0 -- -- 99
2019-05-31 07:00:00 8.7 0 Calma 5 Sudoeste 0 -- -- 97
2019-05-31 06:00:00 8.9 0 Calma 6 Sudeste 0 -- -- 96
2019-05-31 05:00:00 9.4 0 Calma 5 Sudeste 0 -- -- 94
2019-05-31 04:00:00 9.9 3 Sur 5 Sur 0 -- -- 93
2019-05-31 03:00:00 10.6 2 Sudeste 6 Sur 0 -- -- 92
2019-05-31 02:00:00 11.3 0 Calma 4 Sur 0 -- -- 92
2019-05-31 01:00:00 12.1 0 Calma 4 Sur 0 -- -- 92
2019-05-31 00:00:00 13.2 2 Sur 4 Sur 0 -- -- 89
2019-05-30 23:00:00 14.6 2 Sur 5 Sur 0 -- -- 85
2019-05-30 22:00:00 16.8 0 Calma 6 Sur 0 -- -- 78
2019-05-30 21:00:00 20.1 4 Sur 8 Noroeste 0 -- -- 67
2019-05-30 20:00:00 24 3 Noroeste 13 Nordeste 0 -- -- 54
2019-05-30 19:00:00 26.4 5 Norte 18 Nordeste 0 -- -- 51
2019-05-30 18:00:00 27.5 6 Norte 20 Norte 0 -- -- 47
2019-05-30 17:00:00 28 5 Norte 18 Norte 0 -- -- 51
2019-05-30 16:00:00 27.7 7 Norte 21 Norte 0 -- -- 50
2019-05-30 15:00:00 27.5 6 Norte 15 Norte 0 -- -- 49
2019-05-30 14:00:00 26.8 6 Norte 15 Norte 0 -- -- 49
2019-05-30 13:00:00 25.4 6 Norte 19 Norte 0 -- -- 52
2019-05-30 12:00:00 22.7 5 Norte 12 Nordeste 0 -- -- 55
2019-05-30 11:00:00 14.9 0 Calma 3 Sudeste 0 -- -- 84
2019-05-30 10:00:00 8.5 0 Calma 3 Norte 0 -- -- 100
2019-05-30 09:00:00 7.9 0 Calma 2 Sudeste 0 -- -- 99
2019-05-30 08:00:00 7.7 2 Sur 4 Sur 0 -- -- 98
2019-05-30 07:00:00 7.3 2 Sur 4 Sudoeste 0 -- -- 97
2019-05-30 06:00:00 7.5 2 Sur 4 Sur 0 -- -- 96
2019-05-30 05:00:00 7.7 0 Calma 3 Sur 0 -- -- 96
2019-05-30 04:00:00 8.1 2 Sur 4 Sur 0 -- -- 96
2019-05-30 03:00:00 8.8 2 Sur 3 Sur 0 -- -- 96
2019-05-30 02:00:00 9.8 0 Calma 3 Sur 0 -- -- 95
2019-05-30 01:00:00 10.6 0 Calma 4 Sur 0 -- -- 96
2019-05-30 00:00:00 11.5 0 Calma 3 Sur 0 -- -- 94
2019-05-29 23:00:00 12.9 0 Calma 4 Sudoeste 0 -- -- 90
2019-05-29 22:00:00 15.1 0 Calma 6 Sur 0 -- -- 85
2019-05-29 21:00:00 17.5 2 Sur 13 Noroeste 0 -- -- 77
2019-05-29 20:00:00 19.4 5 Noroeste 16 Nordeste 0 -- -- 68
2019-05-29 19:00:00 21.8 5 Norte 20 Norte 0 -- -- 64
2019-05-29 18:00:00 22.8 7 Norte 17 Norte 0 -- -- 63
2019-05-29 17:00:00 23.2 7 Norte 17 Norte 0 -- -- 58
2019-05-29 16:00:00 22.8 7 Norte 19 Nordeste 0 -- -- 62
2019-05-29 15:00:00 22.4 7 Norte 18 Noroeste 0 -- -- 61
2019-05-29 14:00:00 21.7 5 Norte 17 Este 0 -- -- 58
2019-05-29 13:00:00 20.7 5 Norte 13 Nordeste 0 -- -- 58
2019-05-29 12:00:00 18.1 5 Norte 11 Nordeste 0 -- -- 60
2019-05-29 11:00:00 11 2 Sudeste 4 Norte 0 -- -- 88
2019-05-29 10:00:00 5.5 0 Calma 3 Sur 0 -- -- 100
2019-05-29 09:00:00 5 3 Sur 4 Sudoeste 0 -- -- 100
2019-05-29 08:00:00 4.5 0 Calma 4 Sur 0 -- -- 100
2019-05-29 07:00:00 4.5 0 Calma 2 Sur 0 -- -- 99
2019-05-29 06:00:00 5.1 2 Sur 4 Sur 0 -- -- 99
2019-05-29 05:00:00 5.5 2 Sur 4 Sudoeste 0 -- -- 98
2019-05-29 04:00:00 6 0 Calma 4 Sudeste 0 -- -- 98
2019-05-29 03:00:00 6.2 2 Sur 4 Sudoeste 0 -- -- 96
2019-05-29 02:00:00 7.1 0 Calma 4 Sudoeste 0 -- -- 96
2019-05-29 01:00:00 7.5 2 Sur 4 Sur 0 -- -- 93
2019-05-29 00:00:00 8.9 3 Sur 5 Sur 0 -- -- 88
2019-05-28 23:00:00 9.6 2 Noroeste 8 Norte 0 -- -- 85
2019-05-28 22:00:00 10.9 2 Noroeste 10 Noroeste 0 -- -- 80
2019-05-28 21:00:00 12.2 4 Noroeste 16 Norte 0 -- -- 72
2019-05-28 20:00:00 13.4 5 Norte 18 Norte 0 -- -- 67
2019-05-28 19:00:00 16.1 9 Norte 21 Norte 0 -- -- 58
2019-05-28 18:00:00 17.5 8 Norte 23 Nordeste 0 -- -- 56
2019-05-28 17:00:00 17.3 8 Norte 22 Nordeste 0 -- -- 60
2019-05-28 16:00:00 17.5 8 Norte 21 Norte 0 -- -- 53
2019-05-28 15:00:00 17.1 6 Norte 20 Norte 0 -- -- 62
2019-05-28 14:00:00 16.9 8 Norte 20 Norte 0 -- -- 55
2019-05-28 13:00:00 15.8 7 Norte 17 Nordeste 0 -- -- 58
2019-05-28 12:00:00 14.6 5 Norte 16 Norte 0 -- -- 59
2019-05-28 11:00:00 12.7 4 Norte 9 Nordeste 0 -- -- 64
2019-05-28 10:00:00 10.4 3 Sudeste 6 Sudeste 0 -- -- 69
2019-05-28 09:00:00 8.6 0 Calma 3 Norte 0 -- -- 91
2019-05-28 08:00:00 7.5 0 Calma 3 Sur 0 -- -- 99
2019-05-28 07:00:00 7.4 0 Calma 3 Sur 0 -- -- 98
2019-05-28 06:00:00 7.3 0 Calma 2 Sur 0 -- -- 98
2019-05-28 05:00:00 7.2 2 Sur 4 Sur 0 -- -- 95
2019-05-28 04:00:00 8.7 2 Sur 8 Noroeste 0 -- -- 89
2019-05-28 03:00:00 9.6 2 Noroeste 11 Noroeste 0 -- -- 88
2019-05-28 02:00:00 9.9 3 Noroeste 8 Este 0 -- -- 87
2019-05-28 01:00:00 9.9 3 Norte 13 Noroeste 0 -- -- 88
2019-05-28 00:00:00 10.6 3 Noroeste 13 Noroeste 0 -- -- 88
2019-05-27 23:00:00 10.4 4 Noroeste 12 Noroeste 0 -- -- 88
2019-05-27 22:00:00 11.4 2 Norte 14 Norte 0 -- -- 87
2019-05-27 21:00:00 12.1 5 Norte 21 Norte 0 -- -- 86
2019-05-27 20:00:00 13.3 5 Norte 17 Norte 0 -- -- 82
2019-05-27 19:00:00 15.2 8 Norte 21 Norte 0 -- -- 79
2019-05-27 18:00:00 16.7 9 Norte 22 Nordeste 0 -- -- 73
2019-05-27 17:00:00 17.8 7 Norte 21 Norte 0 -- -- 71
2019-05-27 16:00:00 18.3 7 Norte 22 Norte 0 -- -- 69
2019-05-27 15:00:00 18.1 8 Norte 21 Nordeste 0 -- -- 73
2019-05-27 14:00:00 17.4 6 Norte 15 Norte 0 -- -- 75
2019-05-27 13:00:00 15.8 5 Norte 16 Norte 0 -- -- 87
2019-05-27 12:00:00 14.6 7 Norte 21 Norte 0 -- -- 88
2019-05-27 11:00:00 14.4 4 Noroeste 14 Norte 0 -- -- 87
2019-05-27 10:00:00 14 5 Norte 14 Norte 0 -- -- 86
2019-05-27 09:00:00 12.7 0 Calma 3 Noroeste 0 -- -- 89
2019-05-27 08:00:00 11.9 0 Calma 4 Norte 0 -- -- 94
2019-05-27 07:00:00 11.5 0 Calma 5 Norte 0 -- -- 94
2019-05-27 06:00:00 11.3 2 Sudoeste 3 Sudoeste 0 -- -- 95
2019-05-27 05:00:00 11.1 0 Calma 2 Este 0 -- -- 93
2019-05-27 04:00:00 11.1 2 Sur 6 Sudoeste 0 -- -- 90
2019-05-27 03:00:00 11.9 4 Sur 8 Sudoeste 0 -- -- 86
2019-05-27 02:00:00 12.8 2 Sur 5 Sudoeste 0 -- -- 88
2019-05-27 01:00:00 13.1 0 Calma 3 Sudoeste 0 -- -- 91
2019-05-27 00:00:00 13 0 Calma 10 Norte 0 -- -- 92
2019-05-26 23:00:00 12.9 3 Norte 9 Norte 0 -- -- 92
2019-05-26 22:00:00 14.5 0 Calma 17 Noroeste 0 -- -- 86
2019-05-26 21:00:00 16 6 Noroeste 17 Noroeste 0 -- -- 81
2019-05-26 20:00:00 17.7 8 Norte 22 Norte 0 -- -- 75
2019-05-26 19:00:00 20.6 8 Norte 17 Norte 0 -- -- 67
2019-05-26 18:00:00 22.4 8 Norte 24 Norte 0 -- -- 60
2019-05-26 17:00:00 22.7 8 Norte 19 Noroeste 0 -- -- 53
2019-05-26 16:00:00 22.5 8 Norte 23 Norte 0 -- -- 60
2019-05-26 15:00:00 21.5 10 Norte 26 Norte 0 -- -- 62
2019-05-26 14:00:00 21.2 6 Norte 21 Noroeste 0 -- -- 60
2019-05-26 13:00:00 19.3 6 Norte 18 Noroeste 0 -- -- 66
2019-05-26 12:00:00 16.6 7 Norte 17 Norte 0 -- -- 70
2019-05-26 11:00:00 10.7 3 Nordeste 5 Nordeste 0 -- -- 97
2019-05-26 10:00:00 6.2 0 Calma 4 Sur 0 -- -- 100
2019-05-26 09:00:00 5.7 0 Calma 3 Sur 0 -- -- 100
2019-05-26 08:00:00 5.3 0 Calma 3 Sudoeste 0 -- -- 100
2019-05-26 07:00:00 5.5 2 Sur 4 Sudoeste 0 -- -- 100
2019-05-26 06:00:00 6.1 0 Calma 3 Sur 0 -- -- 99
2019-05-26 05:00:00 6.4 0 Calma 3 Sur 0 -- -- 99
2019-05-26 04:00:00 7 0 Calma 4 Sur 0 -- -- 98
2019-05-26 03:00:00 7.7 0 Calma 3 Sur 0 -- -- 97
2019-05-26 02:00:00 8.6 0 Calma 3 Sudoeste 0 -- -- 95
2019-05-26 01:00:00 10.1 0 Calma 5 Sur 0 -- -- 93
2019-05-26 00:00:00 11.2 0 Calma 6 Oeste 0 -- -- 90
2019-05-25 23:00:00 12.5 2 Noroeste 11 Noroeste 0 -- -- 85
2019-05-25 22:00:00 13.2 4 Noroeste 14 Norte 0 -- -- 84
2019-05-25 21:00:00 13.7 6 Norte 19 Norte 0 -- -- 82
2019-05-25 20:00:00 15.6 7 Norte 22 Noroeste 0 -- -- 73
2019-05-25 19:00:00 18.1 8 Norte 21 Norte 0 -- -- 63
2019-05-25 18:00:00 19.4 6 Norte 24 Norte 0 -- -- 60
2019-05-25 17:00:00 19.7 9 Norte 22 Norte 0 -- -- 64
2019-05-25 16:00:00 20 8 Norte 18 Nordeste 0 -- -- 67
2019-05-25 15:00:00 19.5 8 Norte 19 Noroeste 0 -- -- 61
2019-05-25 14:00:00 18.7 6 Norte 17 Norte 0 -- -- 61
2019-05-25 13:00:00 17.3 8 Norte 18 Norte 0 -- -- 60
2019-05-25 12:00:00 16.2 7 Norte 15 Norte 0 -- -- 65
2019-05-25 11:00:00 12.4 5 Nordeste 10 Nordeste 0 -- -- 75
2019-05-25 10:00:00 9.8 0 Calma 3 Este 0 -- -- 92
2019-05-25 09:00:00 9.3 0 Calma 4 Sur 0 -- -- 95
2019-05-25 08:00:00 8 0 Calma 2 Sudeste 0 -- -- 99
2019-05-25 07:00:00 7.6 0 Calma 4 Sudoeste 0 -- -- 98
2019-05-25 06:00:00 8.3 0 Calma 3 Sudeste 0 -- -- 98
2019-05-25 05:00:00 7.9 0 Calma 0 Calma 0 -- -- 99
2019-05-25 04:00:00 7.5 0 Calma 2 Sudoeste 0 -- -- 96
2019-05-25 03:00:00 8.7 0 Calma 4 Sur 0 -- -- 92
2019-05-25 02:00:00 10.2 0 Calma 8 Noroeste 0 -- -- 89
2019-05-25 01:00:00 10.8 2 Sur 13 Nordeste 0 -- -- 86
2019-05-25 00:00:00 10.7 3 Norte 9 Norte 0 -- -- 87